Time;durP1;ratioP1;P1;durP2;ratioP2;P2;SDS_P1;SDS_P2;PMS_P1;PMS_P2;Temp;Humidity;BMP_temperature;BMP_pressure;BME280_temperature;BME280_humidity;BME280_pressure;Samples;Min_cycle;Max_cycle;Signal;HPM_P1;HPM_P2
2023/07/02 00:01:59;;;;;;;5.60;2.97;;;;;;;;;;5084109;27;99092;-78
2023/07/02 00:04:25;;;;;;;6.05;3.10;;;;;;;;;;5086858;27;99467;-78
2023/07/02 00:06:53;;;;;;;8.35;2.90;;;;;;;;;;5084942;27;99037;-78
2023/07/02 00:09:19;;;;;;;10.57;3.72;;;;;;;;;;5088609;27;99962;-76
2023/07/02 00:11:46;;;;;;;4.90;3.33;;;;;;;;;;5084069;27;99389;-76
2023/07/02 00:14:14;;;;;;;10.50;3.97;;;;;;;;;;5086582;27;99510;-78
2023/07/02 00:16:45;;;;;;;6.00;3.40;;;;;;;;;;5086462;27;100352;-78
2023/07/02 00:19:13;;;;;;;5.00;3.65;;;;;;;;;;5086842;27;99438;-78
2023/07/02 00:21:40;;;;;;;7.30;4.00;;;;;;;;;;5087049;27;99938;-78
2023/07/02 00:24:09;;;;;;;9.65;4.40;;;;;;;;;;5088053;27;100916;-78
2023/07/02 00:26:37;;;;;;;7.85;3.63;;;;;;;;;;5086132;27;98886;-78
2023/07/02 00:29:05;;;;;;;10.30;4.22;;;;;;;;;;5085729;27;99960;-77
2023/07/02 00:31:33;;;;;;;7.18;3.65;;;;;;;;;;5090187;27;99534;-77
2023/07/02 00:34:03;;;;;;;7.95;3.75;;;;;;;;;;5086699;27;98876;-78
2023/07/02 00:36:30;;;;;;;10.00;3.72;;;;;;;;;;5085361;27;100888;-78
2023/07/02 00:38:59;;;;;;;6.93;3.63;;;;;;;;;;5085855;27;98763;-78
2023/07/02 00:41:26;;;;;;;14.52;4.72;;;;;;;;;;5067540;27;101586;-78
2023/07/02 00:43:54;;;;;;;14.60;5.57;;;;;;;;;;5085582;27;99289;-78
2023/07/02 00:46:25;;;;;;;11.07;4.18;;;;;;;;;;5067039;27;99026;-77
2023/07/02 00:48:54;;;;;;;10.85;3.83;;;;;;;;;;5085560;27;99992;-78
2023/07/02 00:51:23;;;;;;;14.32;4.10;;;;;;;;;;5085048;27;100484;-78
2023/07/02 00:53:55;;;;;;;5.22;4.03;;;;;;;;;;5087792;27;98970;-77
2023/07/02 00:56:25;;;;;;;6.53;3.58;;;;;;;;;;5085812;27;99377;-77
2023/07/02 00:58:58;;;;;;;16.50;5.13;;;;;;;;;;5085296;27;99189;-78
2023/07/02 01:01:27;;;;;;;18.55;5.07;;;;;;;;;;5085087;27;99393;-77
2023/07/02 01:04:01;;;;;;;14.70;4.53;;;;;;;;;;5084797;27;99264;-77
2023/07/02 01:06:31;;;;;;;26.52;5.03;;;;;;;;;;5088717;27;98946;-78
2023/07/02 01:08:59;;;;;;;6.85;4.18;;;;;;;;;;5088736;27;99829;-78
2023/07/02 01:11:35;;;;;;;11.05;4.85;;;;;;;;;;5069295;27;99654;-78
2023/07/02 01:14:02;;;;;;;17.92;5.47;;;;;;;;;;5088800;27;99379;-78
2023/07/02 01:16:32;;;;;;;16.27;5.85;;;;;;;;;;5092217;27;99948;-78
2023/07/02 01:19:04;;;;;;;9.48;5.45;;;;;;;;;;5087480;27;98880;-77
2023/07/02 01:21:32;;;;;;;17.02;5.07;;;;;;;;;;5070068;27;100505;-77
2023/07/02 01:24:00;;;;;;;11.63;4.78;;;;;;;;;;5088884;27;99101;-78
2023/07/02 01:26:29;;;;;;;11.27;5.55;;;;;;;;;;5069535;27;100090;-78
2023/07/02 01:28:56;;;;;;;16.45;5.90;;;;;;;;;;5088737;27;99718;-77
2023/07/02 01:31:25;;;;;;;14.45;5.28;;;;;;;;;;5070167;27;101767;-79
2023/07/02 01:33:52;;;;;;;10.02;5.55;;;;;;;;;;5069459;27;101821;-78
2023/07/02 01:36:19;;;;;;;16.77;5.85;;;;;;;;;;5091679;27;99884;-78
2023/07/02 01:38:45;;;;;;;15.68;5.07;;;;;;;;;;5088123;27;98806;-78
2023/07/02 01:41:12;;;;;;;12.10;5.47;;;;;;;;;;5088510;27;98965;-77
2023/07/02 01:43:38;;;;;;;18.63;7.13;;;;;;;;;;5088972;27;98961;-78
2023/07/02 01:46:05;;;;;;;16.10;5.53;;;;;;;;;;5088049;27;99574;-78
2023/07/02 01:48:31;;;;;;;17.20;6.85;;;;;;;;;;5088419;27;100130;-78
2023/07/02 01:50:58;;;;;;;13.48;5.22;;;;;;;;;;5088070;27;99963;-78
2023/07/02 01:53:32;;;;;;;11.18;5.03;;;;;;;;;;5087247;27;99266;-77
2023/07/02 01:56:01;;;;;;;20.02;6.10;;;;;;;;;;5087922;27;100476;-78
2023/07/02 01:58:27;;;;;;;12.93;5.07;;;;;;;;;;5072377;27;101084;-76
2023/07/02 02:00:55;;;;;;;18.05;5.97;;;;;;;;;;5068758;27;98988;-76
2023/07/02 02:03:23;;;;;;;13.45;5.40;;;;;;;;;;5088143;27;99232;-77
2023/07/02 02:05:51;;;;;;;10.43;4.93;;;;;;;;;;5068512;27;101605;-79
2023/07/02 02:08:18;;;;;;;16.75;6.28;;;;;;;;;;5088575;27;100054;-78
2023/07/02 02:10:44;;;;;;;15.90;5.50;;;;;;;;;;5086604;27;99345;-78
2023/07/02 02:13:11;;;;;;;20.60;6.97;;;;;;;;;;5088116;27;99427;-78
2023/07/02 02:15:38;;;;;;;12.85;5.85;;;;;;;;;;5067967;27;101097;-78
2023/07/02 02:18:05;;;;;;;14.07;5.40;;;;;;;;;;5069137;27;98701;-77
2023/07/02 02:20:32;;;;;;;12.90;5.60;;;;;;;;;;5091213;27;99675;-79
2023/07/02 02:22:59;;;;;;;16.38;5.80;;;;;;;;;;5087128;27;98941;-77
2023/07/02 02:25:25;;;;;;;19.13;6.57;;;;;;;;;;5087930;27;99357;-76
2023/07/02 02:27:51;;;;;;;18.48;5.97;;;;;;;;;;5087780;27;99125;-78
2023/07/02 02:30:18;;;;;;;12.25;5.18;;;;;;;;;;5068272;27;102387;-76
2023/07/02 02:32:45;;;;;;;26.83;6.93;;;;;;;;;;5069904;27;101260;-77
2023/07/02 02:35:12;;;;;;;16.95;6.35;;;;;;;;;;5087095;27;99034;-77
2023/07/02 02:37:39;;;;;;;18.08;6.35;;;;;;;;;;5087894;27;99052;-78
2023/07/02 02:40:08;;;;;;;18.65;6.70;;;;;;;;;;5068617;27;101439;-78
2023/07/02 02:42:38;;;;;;;17.33;5.88;;;;;;;;;;5075377;27;102461;-77
2023/07/02 02:45:05;;;;;;;16.60;6.20;;;;;;;;;;5073245;27;98618;-78
2023/07/02 02:47:31;;;;;;;13.57;5.75;;;;;;;;;;5074710;27;101660;-77
2023/07/02 02:49:59;;;;;;;18.02;6.43;;;;;;;;;;5087263;27;100137;-77
2023/07/02 02:52:25;;;;;;;15.00;5.40;;;;;;;;;;5088252;27;98777;-77
2023/07/02 02:54:54;;;;;;;11.07;5.65;;;;;;;;;;5069358;27;99989;-77
2023/07/02 02:57:21;;;;;;;13.02;5.97;;;;;;;;;;5087426;27;99522;-76
2023/07/02 02:59:47;;;;;;;21.67;7.30;;;;;;;;;;5069063;27;100385;-77
2023/07/02 03:02:14;;;;;;;16.30;6.60;;;;;;;;;;5087357;27;98651;-78
2023/07/02 03:04:41;;;;;;;12.82;5.65;;;;;;;;;;5070324;27;102074;-78
2023/07/02 03:07:07;;;;;;;14.52;6.15;;;;;;;;;;5068269;27;101714;-77
2023/07/02 03:09:34;;;;;;;17.67;6.65;;;;;;;;;;5068000;27;100593;-78
2023/07/02 03:12:04;;;;;;;13.18;6.00;;;;;;;;;;5067543;27;101547;-77
2023/07/02 03:14:32;;;;;;;20.10;6.68;;;;;;;;;;5068043;27;99135;-78
2023/07/02 03:16:58;;;;;;;19.77;7.90;;;;;;;;;;5067369;27;101069;-78
2023/07/02 03:19:25;;;;;;;12.23;6.10;;;;;;;;;;5084922;27;99358;-77
2023/07/02 03:21:51;;;;;;;10.07;6.07;;;;;;;;;;5087272;27;99882;-78
2023/07/02 03:24:18;;;;;;;14.77;5.97;;;;;;;;;;5085803;27;100315;-77
2023/07/02 03:26:44;;;;;;;11.70;5.47;;;;;;;;;;5088636;27;98476;-79
2023/07/02 03:29:11;;;;;;;17.33;5.80;;;;;;;;;;5067378;27;100678;-77
2023/07/02 03:31:39;;;;;;;17.23;6.35;;;;;;;;;;5086025;27;99916;-77
2023/07/02 03:34:07;;;;;;;16.17;6.05;;;;;;;;;;5066942;27;98608;-78
2023/07/02 03:36:36;;;;;;;16.10;5.85;;;;;;;;;;5087863;27;99809;-78
2023/07/02 03:39:04;;;;;;;16.02;6.05;;;;;;;;;;5086286;27;99076;-77
2023/07/02 03:41:34;;;;;;;20.20;6.35;;;;;;;;;;5090547;27;99063;-78
2023/07/02 03:44:01;;;;;;;12.05;5.88;;;;;;;;;;5090624;27;100234;-77
2023/07/02 03:46:27;;;;;;;12.98;5.53;;;;;;;;;;5090987;27;98796;-79
2023/07/02 03:48:54;;;;;;;20.95;6.53;;;;;;;;;;5068145;27;99170;-78
2023/07/02 03:51:22;;;;;;;21.60;7.20;;;;;;;;;;5086018;27;98892;-77
2023/07/02 03:53:49;;;;;;;17.33;6.85;;;;;;;;;;5085234;27;99575;-77
2023/07/02 03:56:19;;;;;;;18.55;6.28;;;;;;;;;;5067315;27;99340;-77
2023/07/02 03:58:45;;;;;;;25.15;7.00;;;;;;;;;;5086562;27;100085;-78
2023/07/02 04:01:13;;;;;;;13.10;6.78;;;;;;;;;;5084650;27;99346;-79
2023/07/02 04:03:48;;;;;;;12.77;5.80;;;;;;;;;;5086225;27;100168;-78
2023/07/02 04:06:15;;;;;;;15.13;6.00;;;;;;;;;;5085921;27;100247;-77
2023/07/02 04:08:42;;;;;;;16.58;5.78;;;;;;;;;;5088902;27;99842;-79
2023/07/02 04:11:10;;;;;;;15.07;5.30;;;;;;;;;;5086001;27;99944;-79
2023/07/02 04:13:39;;;;;;;15.48;6.20;;;;;;;;;;5084712;27;98905;-78
2023/07/02 04:16:05;;;;;;;16.50;6.10;;;;;;;;;;5085558;27;100389;-78
2023/07/02 04:18:35;;;;;;;23.88;7.68;;;;;;;;;;5084965;27;99322;-79
2023/07/02 04:21:01;;;;;;;15.20;5.70;;;;;;;;;;5084212;27;100081;-77
2023/07/02 04:23:28;;;;;;;16.15;5.93;;;;;;;;;;5085144;27;99929;-77
2023/07/02 04:25:55;;;;;;;20.45;6.40;;;;;;;;;;5085934;27;100616;-79
2023/07/02 04:28:41;;;;;;;17.77;6.60;;;;;;;;;;5085688;27;100003;-76
2023/07/02 04:31:08;;;;;;;20.05;6.35;;;;;;;;;;5089811;27;100752;-78
2023/07/02 04:33:36;;;;;;;10.93;5.82;;;;;;;;;;5087062;27;99952;-77
2023/07/02 04:36:03;;;;;;;20.13;7.32;;;;;;;;;;5089085;27;99294;-78
2023/07/02 04:38:33;;;;;;;13.13;6.68;;;;;;;;;;5090518;27;99975;-78
2023/07/02 04:41:04;;;;;;;13.10;6.07;;;;;;;;;;5106017;27;99523;-77
2023/07/02 04:43:32;;;;;;;19.43;7.90;;;;;;;;;;5105238;27;99254;-78
2023/07/02 04:46:01;;;;;;;16.45;6.55;;;;;;;;;;5101304;27;98644;-77
2023/07/02 04:48:28;;;;;;;15.10;6.05;;;;;;;;;;5103391;27;98825;-80
2023/07/02 04:50:54;;;;;;;27.98;7.10;;;;;;;;;;5102919;27;100130;-77
2023/07/02 04:53:21;;;;;;;18.02;7.13;;;;;;;;;;5095205;27;99912;-78
2023/07/02 04:55:47;;;;;;;17.75;6.38;;;;;;;;;;5089099;27;100244;-77
2023/07/02 04:58:16;;;;;;;17.45;5.75;;;;;;;;;;5089285;27;98810;-79
2023/07/02 05:00:42;;;;;;;14.65;6.32;;;;;;;;;;5089311;27;99103;-77
2023/07/02 05:03:08;;;;;;;19.98;5.97;;;;;;;;;;5089381;27;100165;-79
2023/07/02 05:05:35;;;;;;;19.83;6.50;;;;;;;;;;5088181;27;98952;-77
2023/07/02 05:08:04;;;;;;;14.90;6.03;;;;;;;;;;5088648;27;100136;-78
2023/07/02 05:10:31;;;;;;;19.25;7.18;;;;;;;;;;5088021;27;100311;-78
2023/07/02 05:12:58;;;;;;;18.52;6.18;;;;;;;;;;5088970;27;100506;-77
2023/07/02 05:15:24;;;;;;;16.58;6.25;;;;;;;;;;5091428;27;99111;-79
2023/07/02 05:17:51;;;;;;;18.55;7.50;;;;;;;;;;5088615;27;100238;-78
2023/07/02 05:20:21;;;;;;;15.77;5.75;;;;;;;;;;5088993;27;98573;-79
2023/07/02 05:22:49;;;;;;;18.25;5.88;;;;;;;;;;5088148;27;99270;-78
2023/07/02 05:25:16;;;;;;;15.02;6.75;;;;;;;;;;5088574;27;98897;-78
2023/07/02 05:27:45;;;;;;;13.43;5.85;;;;;;;;;;5088766;27;99142;-78
2023/07/02 05:30:12;;;;;;;21.05;6.45;;;;;;;;;;5088795;27;100562;-78
2023/07/02 05:32:39;;;;;;;18.40;7.00;;;;;;;;;;5087622;27;100081;-79
2023/07/02 05:35:06;;;;;;;12.50;6.50;;;;;;;;;;5091770;27;101094;-78
2023/07/02 05:37:32;;;;;;;20.30;7.63;;;;;;;;;;5088873;27;100001;-78
2023/07/02 05:40:00;;;;;;;17.15;6.22;;;;;;;;;;5087573;27;99925;-78
2023/07/02 05:42:26;;;;;;;14.93;6.20;;;;;;;;;;5088166;27;100172;-78
2023/07/02 05:44:52;;;;;;;25.67;6.15;;;;;;;;;;5086701;27;98957;-77
2023/07/02 05:47:19;;;;;;;14.00;6.82;;;;;;;;;;5087386;27;98966;-77
2023/07/02 05:49:45;;;;;;;20.17;6.97;;;;;;;;;;5088041;27;99752;-77
2023/07/02 05:52:12;;;;;;;19.42;7.80;;;;;;;;;;5086465;27;99174;-77
2023/07/02 05:54:42;;;;;;;16.40;5.93;;;;;;;;;;5087650;27;98987;-79
2023/07/02 05:57:09;;;;;;;15.88;6.78;;;;;;;;;;5089380;27;101369;-78
2023/07/02 05:59:35;;;;;;;15.27;6.30;;;;;;;;;;5087446;27;100687;-78
2023/07/02 06:02:02;;;;;;;18.35;6.03;;;;;;;;;;5088009;27;100214;-79
2023/07/02 06:04:29;;;;;;;17.65;5.90;;;;;;;;;;5087166;27;99361;-78
2023/07/02 06:06:57;;;;;;;14.23;6.28;;;;;;;;;;5086864;27;99966;-80
2023/07/02 06:09:23;;;;;;;14.30;5.65;;;;;;;;;;5087933;27;100927;-79
2023/07/02 06:11:50;;;;;;;17.90;5.57;;;;;;;;;;5087111;27;101112;-79
2023/07/02 06:14:17;;;;;;;12.88;5.53;;;;;;;;;;5087641;27;99769;-79
2023/07/02 06:16:43;;;;;;;12.65;5.75;;;;;;;;;;5069164;27;99405;-79
2023/07/02 06:19:10;;;;;;;13.25;5.78;;;;;;;;;;5091132;27;99789;-79
2023/07/02 06:21:36;;;;;;;13.00;5.55;;;;;;;;;;5085740;27;100064;-78
2023/07/02 06:24:03;;;;;;;17.23;6.07;;;;;;;;;;5087272;27;98783;-79
2023/07/02 06:26:32;;;;;;;15.35;5.38;;;;;;;;;;5088015;27;99950;-78
2023/07/02 06:28:59;;;;;;;11.80;6.07;;;;;;;;;;5068479;27;100515;-78
2023/07/02 06:31:25;;;;;;;19.02;5.38;;;;;;;;;;5087704;27;100126;-78
2023/07/02 06:33:52;;;;;;;11.65;5.10;;;;;;;;;;5087109;27;98842;-78
2023/07/02 06:36:19;;;;;;;14.55;5.00;;;;;;;;;;5085424;27;99390;-79
2023/07/02 06:38:45;;;;;;;9.60;5.20;;;;;;;;;;5087907;27;99436;-79
2023/07/02 06:41:12;;;;;;;12.18;5.68;;;;;;;;;;5088147;27;98643;-78
2023/07/02 06:43:38;;;;;;;18.70;5.93;;;;;;;;;;5088009;27;99950;-79
2023/07/02 06:46:05;;;;;;;17.33;6.07;;;;;;;;;;5088003;27;101019;-78
2023/07/02 06:48:32;;;;;;;10.23;5.13;;;;;;;;;;5086236;27;98975;-79
2023/07/02 06:50:59;;;;;;;14.23;5.68;;;;;;;;;;5087563;27;98801;-79
2023/07/02 06:53:26;;;;;;;7.97;4.75;;;;;;;;;;5092291;27;99707;-80
2023/07/02 06:55:57;;;;;;;13.38;4.82;;;;;;;;;;5096789;27;100393;-78
2023/07/02 06:58:25;;;;;;;13.95;5.22;;;;;;;;;;5092399;27;99174;-78
2023/07/02 07:00:51;;;;;;;11.73;5.05;;;;;;;;;;5093971;27;99926;-79
2023/07/02 07:03:18;;;;;;;11.18;4.93;;;;;;;;;;5092245;27;99714;-78
2023/07/02 07:05:46;;;;;;;12.85;5.45;;;;;;;;;;5089725;27;99237;-79
2023/07/02 07:08:12;;;;;;;10.23;5.15;;;;;;;;;;5088391;27;100126;-78
2023/07/02 07:10:39;;;;;;;14.73;5.57;;;;;;;;;;5086160;27;100089;-78
2023/07/02 07:13:06;;;;;;;10.95;4.30;;;;;;;;;;5081565;27;99929;-78
2023/07/02 07:15:36;;;;;;;8.13;4.45;;;;;;;;;;5086622;27;99576;-79
2023/07/02 07:18:03;;;;;;;10.23;4.63;;;;;;;;;;5086351;27;100551;-78
2023/07/02 07:20:30;;;;;;;16.10;5.28;;;;;;;;;;5087018;27;100040;-79
2023/07/02 07:22:57;;;;;;;9.93;4.88;;;;;;;;;;5086770;27;100369;-79
2023/07/02 07:25:24;;;;;;;9.98;4.50;;;;;;;;;;5089537;27;100180;-78
2023/07/02 07:27:51;;;;;;;6.72;3.90;;;;;;;;;;5087309;27;99448;-79
2023/07/02 07:30:22;;;;;;;9.73;4.45;;;;;;;;;;5085380;27;98889;-79
2023/07/02 07:32:53;;;;;;;10.15;4.60;;;;;;;;;;5086591;27;100362;-78
2023/07/02 07:35:21;;;;;;;6.93;4.05;;;;;;;;;;5086389;27;100976;-78
2023/07/02 07:37:47;;;;;;;13.27;4.05;;;;;;;;;;5085777;27;101166;-80
2023/07/02 07:40:14;;;;;;;6.35;4.05;;;;;;;;;;5085065;27;98924;-79
2023/07/02 07:42:42;;;;;;;10.23;4.30;;;;;;;;;;5085582;27;99396;-80
2023/07/02 07:45:12;;;;;;;7.30;4.03;;;;;;;;;;5070851;27;99854;-79
2023/07/02 07:47:39;;;;;;;7.93;3.45;;;;;;;;;;5086560;27;100165;-79
2023/07/02 07:50:09;;;;;;;8.52;4.65;;;;;;;;;;5086497;27;99888;-78
2023/07/02 07:52:42;;;;;;;10.30;4.45;;;;;;;;;;5086705;27;99880;-79
2023/07/02 07:55:09;;;;;;;8.57;3.83;;;;;;;;;;5086630;27;100042;-79
2023/07/02 07:57:36;;;;;;;6.72;3.80;;;;;;;;;;5086008;27;99160;-79
2023/07/02 08:00:05;;;;;;;7.53;3.50;;;;;;;;;;5085050;27;100930;-78
2023/07/02 08:02:42;;;;;;;8.73;4.25;;;;;;;;;;5084847;27;98856;-78
2023/07/02 08:05:09;;;;;;;8.50;3.55;;;;;;;;;;5086629;27;100120;-78
2023/07/02 08:07:36;;;;;;;7.45;3.97;;;;;;;;;;5089396;27;99833;-78
2023/07/02 08:10:04;;;;;;;8.43;4.50;;;;;;;;;;5085506;27;99786;-78
2023/07/02 08:12:31;;;;;;;9.10;4.35;;;;;;;;;;5067275;27;100057;-78
2023/07/02 08:14:58;;;;;;;8.18;4.38;;;;;;;;;;5085374;27;100650;-80
2023/07/02 08:17:26;;;;;;;5.30;3.25;;;;;;;;;;5086619;27;100002;-79
2023/07/02 08:19:52;;;;;;;6.68;3.67;;;;;;;;;;5085262;27;98527;-79
2023/07/02 08:22:19;;;;;;;8.82;4.20;;;;;;;;;;5085971;27;100112;-79
2023/07/02 08:24:45;;;;;;;9.45;4.15;;;;;;;;;;5085538;27;99764;-79
2023/07/02 08:27:15;;;;;;;14.43;4.80;;;;;;;;;;5066287;27;99530;-79
2023/07/02 08:29:46;;;;;;;12.10;4.28;;;;;;;;;;5089218;27;100397;-79
2023/07/02 08:32:12;;;;;;;10.23;5.05;;;;;;;;;;5085713;27;99849;-80
2023/07/02 08:34:39;;;;;;;11.38;4.07;;;;;;;;;;5085235;27;101310;-79
2023/07/02 08:37:08;;;;;;;13.15;4.47;;;;;;;;;;5085490;27;100025;-80
2023/07/02 08:39:35;;;;;;;7.65;4.35;;;;;;;;;;5084818;27;99036;-80
2023/07/02 08:42:02;;;;;;;9.60;4.30;;;;;;;;;;5084537;27;98699;-80
2023/07/02 08:44:28;;;;;;;9.43;4.20;;;;;;;;;;5085792;27;100104;-79
2023/07/02 08:46:56;;;;;;;9.95;3.88;;;;;;;;;;5085185;27;99186;-79
2023/07/02 08:49:23;;;;;;;10.73;3.80;;;;;;;;;;5085056;27;100892;-80
2023/07/02 08:51:49;;;;;;;6.97;4.18;;;;;;;;;;5088708;27;99028;-78
2023/07/02 08:54:18;;;;;;;4.72;3.78;;;;;;;;;;5086020;27;100601;-79
2023/07/02 08:56:45;;;;;;;11.00;3.78;;;;;;;;;;5085396;27;99935;-80
2023/07/02 08:59:12;;;;;;;6.80;4.10;;;;;;;;;;5085661;27;99723;-79
2023/07/02 09:01:48;;;;;;;13.25;4.47;;;;;;;;;;5084843;27;99110;-79
2023/07/02 09:04:21;;;;;;;13.95;5.80;;;;;;;;;;5085672;27;100399;-79
2023/07/02 09:06:48;;;;;;;6.43;4.28;;;;;;;;;;5085025;27;98956;-79
2023/07/02 09:09:15;;;;;;;17.15;4.57;;;;;;;;;;5065697;27;99511;-78
2023/07/02 09:11:50;;;;;;;11.15;3.90;;;;;;;;;;5085414;27;100390;-80
2023/07/02 09:14:30;;;;;;;9.10;3.72;;;;;;;;;;5088153;27;100187;-79
2023/07/02 09:17:03;;;;;;;7.97;3.22;;;;;;;;;;5084286;27;100112;-79
2023/07/02 09:19:32;;;;;;;6.63;3.38;;;;;;;;;;5084938;27;99831;-79
2023/07/02 09:22:02;;;;;;;6.35;3.95;;;;;;;;;;5085064;27;100179;-80
2023/07/02 09:24:30;;;;;;;5.80;3.03;;;;;;;;;;5084477;27;99826;-79
2023/07/02 09:26:59;;;;;;;5.25;3.50;;;;;;;;;;5086449;27;99218;-79
2023/07/02 09:29:29;;;;;;;6.20;3.70;;;;;;;;;;5088727;27;100457;-79
2023/07/02 09:31:57;;;;;;;8.75;3.35;;;;;;;;;;5087411;27;98987;-79
2023/07/02 09:34:41;;;;;;;6.30;3.75;;;;;;;;;;5088413;27;99055;-79
2023/07/02 09:37:09;;;;;;;5.43;3.00;;;;;;;;;;5091435;27;100885;-78
2023/07/02 09:39:36;;;;;;;7.45;2.50;;;;;;;;;;5088353;27;100117;-78
2023/07/02 09:42:05;;;;;;;8.63;3.30;;;;;;;;;;5088890;27;100038;-78
2023/07/02 09:44:33;;;;;;;8.20;3.55;;;;;;;;;;5088487;27;100152;-78
2023/07/02 09:47:07;;;;;;;7.10;2.83;;;;;;;;;;5088159;27;99335;-79
2023/07/02 09:49:39;;;;;;;4.95;2.70;;;;;;;;;;5088895;27;100513;-79
2023/07/02 09:52:10;;;;;;;11.80;2.90;;;;;;;;;;5068987;27;100150;-80
2023/07/02 09:54:37;;;;;;;5.38;3.33;;;;;;;;;;5088364;27;100804;-79
2023/07/02 09:57:04;;;;;;;4.85;2.70;;;;;;;;;;5092250;27;99369;-78
2023/07/02 09:59:30;;;;;;;9.73;3.03;;;;;;;;;;5088593;27;99238;-81
2023/07/02 10:01:57;;;;;;;5.20;2.78;;;;;;;;;;5089136;27;100660;-80
2023/07/02 10:04:24;;;;;;;5.47;2.85;;;;;;;;;;5087870;27;101025;-78
2023/07/02 10:06:55;;;;;;;8.10;2.65;;;;;;;;;;5083369;27;100517;-77
2023/07/02 10:09:38;;;;;;;4.28;2.38;;;;;;;;;;5092245;27;99270;-75
2023/07/02 10:12:27;;;;;;;5.55;3.05;;;;;;;;;;5090346;27;99926;-79
2023/07/02 10:14:54;;;;;;;5.22;2.20;;;;;;;;;;5103016;27;100001;-81
2023/07/02 10:17:31;;;;;;;6.43;2.50;;;;;;;;;;5089799;27;100168;-79
2023/07/02 10:19:59;;;;;;;4.72;2.20;;;;;;;;;;5091062;27;99561;-79
2023/07/02 10:22:27;;;;;;;6.95;3.10;;;;;;;;;;5089251;27;99369;-80
2023/07/02 10:24:57;;;;;;;4.47;2.35;;;;;;;;;;5088054;27;100075;-77
2023/07/02 10:27:52;;;;;;;5.70;2.53;;;;;;;;;;5087164;27;99646;-76
2023/07/02 10:30:29;;;;;;;3.83;2.17;;;;;;;;;;5054727;27;101206;-80
2023/07/02 10:33:06;;;;;;;6.05;2.30;;;;;;;;;;5053547;27;100217;-79
2023/07/02 10:35:34;;;;;;;2.30;1.70;;;;;;;;;;5080628;27;99426;-81
2023/07/02 10:38:01;;;;;;;7.43;2.35;;;;;;;;;;5065196;27;99439;-81
2023/07/02 10:40:29;;;;;;;4.30;2.92;;;;;;;;;;5083679;27;99456;-80
2023/07/02 10:42:55;;;;;;;2.53;2.03;;;;;;;;;;5089018;27;98893;-81
2023/07/02 10:45:30;;;;;;;8.43;3.05;;;;;;;;;;5083968;27;99083;-80
2023/07/02 10:47:57;;;;;;;9.30;2.35;;;;;;;;;;5074066;27;101202;-80
2023/07/02 10:50:23;;;;;;;6.10;2.88;;;;;;;;;;5082702;27;100154;-79
2023/07/02 10:52:50;;;;;;;4.80;2.42;;;;;;;;;;5087556;27;99983;-80
2023/07/02 10:55:20;;;;;;;9.52;2.95;;;;;;;;;;5085808;27;100064;-79
2023/07/02 10:57:50;;;;;;;6.10;2.92;;;;;;;;;;5073636;27;99319;-79
2023/07/02 11:00:18;;;;;;;5.53;2.72;;;;;;;;;;5083143;27;99803;-80
2023/07/02 11:02:45;;;;;;;8.70;2.75;;;;;;;;;;5085349;27;100004;-81
2023/07/02 11:05:13;;;;;;;3.22;2.72;;;;;;;;;;5066622;27;99646;-80
2023/07/02 11:07:43;;;;;;;5.05;2.45;;;;;;;;;;5085156;27;99957;-79
2023/07/02 11:10:16;;;;;;;6.05;2.90;;;;;;;;;;5085951;27;99198;-80
2023/07/02 11:12:43;;;;;;;3.90;2.85;;;;;;;;;;5084733;27;98950;-80
2023/07/02 11:15:15;;;;;;;8.45;2.33;;;;;;;;;;5085902;27;99000;-81
2023/07/02 11:17:43;;;;;;;6.68;2.67;;;;;;;;;;5070024;27;100786;-82
2023/07/02 11:20:10;;;;;;;6.00;2.97;;;;;;;;;;5085485;27;101120;-80
2023/07/02 11:22:37;;;;;;;4.95;2.65;;;;;;;;;;5074211;27;100834;-82
2023/07/02 11:25:19;;;;;;;3.90;2.35;;;;;;;;;;5071116;27;99266;-82
2023/07/02 11:27:46;;;;;;;3.60;3.00;;;;;;;;;;5093703;27;99914;-81
2023/07/02 11:30:13;;;;;;;3.17;2.20;;;;;;;;;;5086846;27;99144;-82
2023/07/02 11:32:48;;;;;;;4.05;2.70;;;;;;;;;;5081428;27;99069;-81
2023/07/02 11:35:15;;;;;;;7.28;3.47;;;;;;;;;;5088674;27;99058;-82
2023/07/02 11:37:42;;;;;;;3.72;2.72;;;;;;;;;;5079794;27;98718;-81
2023/07/02 11:40:09;;;;;;;6.78;3.10;;;;;;;;;;5071262;27;101452;-81
2023/07/02 11:42:37;;;;;;;12.85;4.22;;;;;;;;;;5088938;27;100072;-81
2023/07/02 11:45:05;;;;;;;5.40;2.88;;;;;;;;;;5072409;27;100361;-80
2023/07/02 11:47:32;;;;;;;4.55;3.03;;;;;;;;;;5087758;27;100570;-78
2023/07/02 11:49:59;;;;;;;7.85;3.10;;;;;;;;;;5076367;27;99971;-83
2023/07/02 11:52:35;;;;;;;3.72;3.15;;;;;;;;;;5067514;27;99995;-81
2023/07/02 11:55:02;;;;;;;7.82;3.25;;;;;;;;;;5072287;27;99220;-81
2023/07/02 11:57:30;;;;;;;8.82;3.03;;;;;;;;;;5083311;27;100497;-81
2023/07/02 11:59:56;;;;;;;7.75;2.70;;;;;;;;;;5068640;27;99859;-81
2023/07/02 12:02:22;;;;;;;8.73;3.58;;;;;;;;;;5080711;27;98775;-81
2023/07/02 12:04:49;;;;;;;25.48;3.15;;;;;;;;;;5070408;27;99664;-81
2023/07/02 12:07:16;;;;;;;9.80;3.42;;;;;;;;;;5084629;27;100256;-81
2023/07/02 12:09:43;;;;;;;3.50;2.70;;;;;;;;;;5086845;27;99598;-82
2023/07/02 12:12:10;;;;;;;4.25;2.35;;;;;;;;;;5084300;27;99846;-80
2023/07/02 12:14:43;;;;;;;5.25;2.65;;;;;;;;;;5085616;27;98986;-79
2023/07/02 12:17:12;;;;;;;9.00;3.15;;;;;;;;;;5077800;27;99286;-80
2023/07/02 12:19:39;;;;;;;5.95;2.35;;;;;;;;;;5088659;27;99974;-80
2023/07/02 12:22:06;;;;;;;5.80;2.70;;;;;;;;;;5086739;27;99480;-81
2023/07/02 12:24:35;;;;;;;5.97;2.67;;;;;;;;;;5069374;27;99431;-80
2023/07/02 12:27:01;;;;;;;6.78;2.90;;;;;;;;;;5071287;27;100161;-81
2023/07/02 12:29:28;;;;;;;9.52;3.42;;;;;;;;;;5069113;27;99246;-81
2023/07/02 12:31:57;;;;;;;6.70;2.42;;;;;;;;;;5084400;27;99324;-81
2023/07/02 12:34:23;;;;;;;5.57;2.85;;;;;;;;;;5083968;27;100904;-81
2023/07/02 12:36:57;;;;;;;2.85;2.53;;;;;;;;;;5082006;27;101125;-80
2023/07/02 12:39:24;;;;;;;6.00;3.10;;;;;;;;;;5083130;27;98955;-80
2023/07/02 12:41:52;;;;;;;6.88;2.72;;;;;;;;;;5082330;27;100164;-80
2023/07/02 12:44:18;;;;;;;12.15;3.70;;;;;;;;;;5050237;27;100449;-80
2023/07/02 12:46:46;;;;;;;3.50;3.20;;;;;;;;;;5084817;27;100709;-80
2023/07/02 12:49:13;;;;;;;6.53;3.30;;;;;;;;;;5083305;27;100497;-81
2023/07/02 12:51:39;;;;;;;6.38;3.40;;;;;;;;;;5068310;27;99765;-81
2023/07/02 12:54:06;;;;;;;7.38;3.15;;;;;;;;;;5077863;27;99188;-81
2023/07/02 12:56:33;;;;;;;9.05;3.30;;;;;;;;;;5092688;27;100476;-81
2023/07/02 12:59:01;;;;;;;5.15;3.15;;;;;;;;;;5082130;27;101790;-76
2023/07/02 13:01:27;;;;;;;5.38;3.53;;;;;;;;;;5079097;27;100274;-76
2023/07/02 13:03:54;;;;;;;6.65;2.75;;;;;;;;;;5088108;27;99431;-83
2023/07/02 13:06:21;;;;;;;6.00;2.80;;;;;;;;;;5087129;27;99875;-84
2023/07/02 13:08:50;;;;;;;5.70;3.50;;;;;;;;;;5072758;27;98964;-80
2023/07/02 13:11:17;;;;;;;5.72;2.88;;;;;;;;;;5071579;27;100398;-81
2023/07/02 13:13:43;;;;;;;12.05;3.80;;;;;;;;;;5072689;27;100183;-84
2023/07/02 13:16:09;;;;;;;5.32;3.42;;;;;;;;;;5075495;27;99874;-85
2023/07/02 13:18:36;;;;;;;13.73;4.05;;;;;;;;;;5095450;27;101592;-84
2023/07/02 13:21:03;;;;;;;15.18;3.28;;;;;;;;;;5114650;27;98828;-85
2023/07/02 13:23:29;;;;;;;14.27;3.70;;;;;;;;;;5105536;27;99806;-84
2023/07/02 13:25:56;;;;;;;7.43;2.83;;;;;;;;;;5115782;27;99201;-85
2023/07/02 13:28:23;;;;;;;8.18;3.22;;;;;;;;;;5116156;27;98745;-83
2023/07/02 13:30:49;;;;;;;4.88;2.97;;;;;;;;;;5094828;27;100562;-83
2023/07/02 13:33:16;;;;;;;7.05;2.80;;;;;;;;;;5090628;27;100505;-78
2023/07/02 13:35:43;;;;;;;5.82;3.15;;;;;;;;;;5090289;27;100156;-82
2023/07/02 13:38:10;;;;;;;6.20;2.75;;;;;;;;;;5092416;27;100435;-82
2023/07/02 13:40:38;;;;;;;7.72;3.63;;;;;;;;;;5089113;27;99815;-82
2023/07/02 13:43:04;;;;;;;5.47;2.75;;;;;;;;;;5070296;27;99624;-82
2023/07/02 13:45:31;;;;;;;6.07;3.15;;;;;;;;;;5088120;27;100095;-82
2023/07/02 13:47:57;;;;;;;6.45;3.15;;;;;;;;;;5088766;27;100323;-80
2023/07/02 13:50:24;;;;;;;7.18;3.10;;;;;;;;;;5088919;27;99209;-81
2023/07/02 13:52:50;;;;;;;5.93;3.40;;;;;;;;;;5087577;27;98992;-80
2023/07/02 13:55:17;;;;;;;8.70;3.75;;;;;;;;;;5089751;27;100111;-81
2023/07/02 13:57:44;;;;;;;5.78;2.63;;;;;;;;;;5089095;27;98699;-81
2023/07/02 14:00:10;;;;;;;5.32;3.15;;;;;;;;;;5093159;27;98615;-80
2023/07/02 14:02:37;;;;;;;6.18;3.05;;;;;;;;;;5088078;27;100234;-79
2023/07/02 14:05:04;;;;;;;3.30;2.97;;;;;;;;;;5088651;27;99687;-81
2023/07/02 14:07:30;;;;;;;6.57;3.40;;;;;;;;;;5089648;27;101435;-81
2023/07/02 14:09:57;;;;;;;7.35;3.70;;;;;;;;;;5088478;27;99435;-80
2023/07/02 14:12:24;;;;;;;9.23;3.72;;;;;;;;;;5087369;27;99223;-80
2023/07/02 14:14:50;;;;;;;6.80;3.58;;;;;;;;;;5089675;27;101155;-81
2023/07/02 14:17:16;;;;;;;6.45;3.80;;;;;;;;;;5083075;27;100067;-81
2023/07/02 14:19:43;;;;;;;6.18;4.00;;;;;;;;;;5091506;27;99233;-80
2023/07/02 14:22:09;;;;;;;5.90;3.75;;;;;;;;;;5089854;27;100616;-80
2023/07/02 14:24:36;;;;;;;6.40;3.45;;;;;;;;;;5089252;27;99462;-80
2023/07/02 14:27:03;;;;;;;5.72;3.35;;;;;;;;;;5088910;27;99914;-81
2023/07/02 14:29:29;;;;;;;8.30;3.42;;;;;;;;;;5090552;27;99393;-80
2023/07/02 14:31:56;;;;;;;6.35;3.67;;;;;;;;;;5089276;27;99875;-80
2023/07/02 14:34:23;;;;;;;4.63;3.53;;;;;;;;;;5089519;27;100273;-80
2023/07/02 14:36:49;;;;;;;10.90;4.35;;;;;;;;;;5089431;27;100874;-80